sensor_id;sensor_type;location;lat;lon;timestamp;P1;durP1;ratioP1;P2;durP2;ratioP2
74650;SDS011;63169;46.042;14.592;2023-03-11T00:00:06;8.75;;;4.53;;
74650;SDS011;63169;46.042;14.592;2023-03-11T00:02:37;10.90;;;4.68;;
74650;SDS011;63169;46.042;14.592;2023-03-11T00:05:05;11.85;;;5.82;;
74650;SDS011;63169;46.042;14.592;2023-03-11T00:07:31;13.48;;;6.50;;
74650;SDS011;63169;46.042;14.592;2023-03-11T00:09:57;11.40;;;6.70;;
74650;SDS011;63169;46.042;14.592;2023-03-11T00:12:23;9.88;;;5.70;;
74650;SDS011;63169;46.042;14.592;2023-03-11T00:14:48;8.20;;;4.35;;
74650;SDS011;63169;46.042;14.592;2023-03-11T00:17:13;7.22;;;3.85;;
74650;SDS011;63169;46.042;14.592;2023-03-11T00:19:39;6.13;;;3.50;;
74650;SDS011;63169;46.042;14.592;2023-03-11T00:22:04;6.57;;;3.05;;
74650;SDS011;63169;46.042;14.592;2023-03-11T00:24:30;3.83;;;2.65;;
74650;SDS011;63169;46.042;14.592;2023-03-11T00:26:55;5.80;;;3.38;;
74650;SDS011;63169;46.042;14.592;2023-03-11T00:29:20;6.15;;;3.60;;
74650;SDS011;63169;46.042;14.592;2023-03-11T00:31:46;6.97;;;3.13;;
74650;SDS011;63169;46.042;14.592;2023-03-11T00:34:11;6.25;;;3.67;;
74650;SDS011;63169;46.042;14.592;2023-03-11T00:36:36;8.27;;;4.45;;
74650;SDS011;63169;46.042;14.592;2023-03-11T00:39:02;9.80;;;4.47;;
74650;SDS011;63169;46.042;14.592;2023-03-11T00:41:32;8.18;;;4.20;;
74650;SDS011;63169;46.042;14.592;2023-03-11T00:43:58;8.65;;;4.47;;
74650;SDS011;63169;46.042;14.592;2023-03-11T00:46:24;10.95;;;5.25;;
74650;SDS011;63169;46.042;14.592;2023-03-11T00:48:50;9.90;;;4.85;;
74650;SDS011;63169;46.042;14.592;2023-03-11T00:51:15;8.30;;;5.50;;
74650;SDS011;63169;46.042;14.592;2023-03-11T00:53:41;10.40;;;5.88;;
74650;SDS011;63169;46.042;14.592;2023-03-11T00:56:07;12.13;;;7.18;;
74650;SDS011;63169;46.042;14.592;2023-03-11T00:58:37;13.82;;;7.40;;
74650;SDS011;63169;46.042;14.592;2023-03-11T01:01:06;14.18;;;8.18;;
74650;SDS011;63169;46.042;14.592;2023-03-11T01:03:33;10.77;;;7.22;;
74650;SDS011;63169;46.042;14.592;2023-03-11T01:05:59;16.95;;;7.65;;
74650;SDS011;63169;46.042;14.592;2023-03-11T01:08:24;14.00;;;8.55;;
74650;SDS011;63169;46.042;14.592;2023-03-11T01:10:51;15.10;;;8.48;;
74650;SDS011;63169;46.042;14.592;2023-03-11T01:13:18;13.13;;;7.95;;
74650;SDS011;63169;46.042;14.592;2023-03-11T01:15:43;15.15;;;8.48;;
74650;SDS011;63169;46.042;14.592;2023-03-11T01:18:08;27.23;;;14.95;;
74650;SDS011;63169;46.042;14.592;2023-03-11T01:20:35;11.10;;;8.07;;
74650;SDS011;63169;46.042;14.592;2023-03-11T01:23:01;15.05;;;8.48;;
74650;SDS011;63169;46.042;14.592;2023-03-11T01:25:27;12.15;;;7.40;;
74650;SDS011;63169;46.042;14.592;2023-03-11T01:27:52;14.63;;;7.35;;
74650;SDS011;63169;46.042;14.592;2023-03-11T01:30:19;10.98;;;7.25;;
74650;SDS011;63169;46.042;14.592;2023-03-11T01:32:46;11.02;;;6.68;;
74650;SDS011;63169;46.042;14.592;2023-03-11T01:35:12;13.32;;;7.00;;
74650;SDS011;63169;46.042;14.592;2023-03-11T01:37:39;13.07;;;6.50;;
74650;SDS011;63169;46.042;14.592;2023-03-11T01:40:05;10.95;;;6.63;;
74650;SDS011;63169;46.042;14.592;2023-03-11T01:42:32;12.30;;;7.60;;
74650;SDS011;63169;46.042;14.592;2023-03-11T01:44:57;13.20;;;6.50;;
74650;SDS011;63169;46.042;14.592;2023-03-11T01:47:31;9.85;;;7.10;;
74650;SDS011;63169;46.042;14.592;2023-03-11T01:49:58;10.73;;;6.13;;
74650;SDS011;63169;46.042;14.592;2023-03-11T01:52:24;11.82;;;7.30;;
74650;SDS011;63169;46.042;14.592;2023-03-11T01:54:50;11.65;;;6.63;;
74650;SDS011;63169;46.042;14.592;2023-03-11T01:57:15;11.13;;;7.45;;
74650;SDS011;63169;46.042;14.592;2023-03-11T01:59:43;16.30;;;8.57;;
74650;SDS011;63169;46.042;14.592;2023-03-11T02:02:13;12.95;;;8.88;;
74650;SDS011;63169;46.042;14.592;2023-03-11T02:05:10;13.52;;;8.02;;
74650;SDS011;63169;46.042;14.592;2023-03-11T02:07:37;15.15;;;9.10;;
74650;SDS011;63169;46.042;14.592;2023-03-11T02:10:04;10.90;;;7.70;;
74650;SDS011;63169;46.042;14.592;2023-03-11T02:12:32;12.93;;;8.82;;
74650;SDS011;63169;46.042;14.592;2023-03-11T02:14:59;12.82;;;9.38;;
74650;SDS011;63169;46.042;14.592;2023-03-11T02:17:25;16.33;;;10.20;;
74650;SDS011;63169;46.042;14.592;2023-03-11T02:22:26;14.27;;;8.75;;
74650;SDS011;63169;46.042;14.592;2023-03-11T02:25:00;13.07;;;7.90;;
74650;SDS011;63169;46.042;14.592;2023-03-11T02:27:30;11.60;;;7.32;;
74650;SDS011;63169;46.042;14.592;2023-03-11T02:29:56;12.57;;;7.78;;
74650;SDS011;63169;46.042;14.592;2023-03-11T02:32:23;14.23;;;7.97;;
74650;SDS011;63169;46.042;14.592;2023-03-11T02:34:49;11.45;;;7.22;;
74650;SDS011;63169;46.042;14.592;2023-03-11T02:37:15;10.45;;;6.95;;
74650;SDS011;63169;46.042;14.592;2023-03-11T02:39:45;12.70;;;7.75;;
74650;SDS011;63169;46.042;14.592;2023-03-11T02:42:13;13.90;;;8.35;;
74650;SDS011;63169;46.042;14.592;2023-03-11T02:44:42;11.93;;;7.82;;
74650;SDS011;63169;46.042;14.592;2023-03-11T02:47:08;12.00;;;7.70;;
74650;SDS011;63169;46.042;14.592;2023-03-11T02:49:34;12.52;;;7.97;;
74650;SDS011;63169;46.042;14.592;2023-03-11T02:52:00;13.77;;;8.55;;
74650;SDS011;63169;46.042;14.592;2023-03-11T02:54:26;17.00;;;8.80;;
74650;SDS011;63169;46.042;14.592;2023-03-11T02:56:51;22.60;;;11.40;;
74650;SDS011;63169;46.042;14.592;2023-03-11T02:59:16;21.33;;;11.40;;
74650;SDS011;63169;46.042;14.592;2023-03-11T03:01:42;18.73;;;11.82;;
74650;SDS011;63169;46.042;14.592;2023-03-11T03:04:07;20.23;;;11.30;;
74650;SDS011;63169;46.042;14.592;2023-03-11T03:06:33;25.85;;;11.90;;
74650;SDS011;63169;46.042;14.592;2023-03-11T03:08:58;19.60;;;11.65;;
74650;SDS011;63169;46.042;14.592;2023-03-11T03:11:23;16.65;;;11.00;;
74650;SDS011;63169;46.042;14.592;2023-03-11T03:13:49;16.95;;;10.65;;
74650;SDS011;63169;46.042;14.592;2023-03-11T03:16:14;20.80;;;12.18;;
74650;SDS011;63169;46.042;14.592;2023-03-11T03:18:39;18.60;;;9.77;;
74650;SDS011;63169;46.042;14.592;2023-03-11T03:21:05;17.05;;;11.02;;
74650;SDS011;63169;46.042;14.592;2023-03-11T03:23:30;19.20;;;11.35;;
74650;SDS011;63169;46.042;14.592;2023-03-11T03:26:01;18.63;;;10.73;;
74650;SDS011;63169;46.042;14.592;2023-03-11T03:28:27;21.67;;;12.00;;
74650;SDS011;63169;46.042;14.592;2023-03-11T03:30:53;16.27;;;9.88;;
74650;SDS011;63169;46.042;14.592;2023-03-11T03:33:18;18.73;;;11.35;;
74650;SDS011;63169;46.042;14.592;2023-03-11T03:35:44;18.63;;;10.80;;
74650;SDS011;63169;46.042;14.592;2023-03-11T03:38:09;20.85;;;11.05;;
74650;SDS011;63169;46.042;14.592;2023-03-11T03:40:35;18.00;;;10.30;;
74650;SDS011;63169;46.042;14.592;2023-03-11T03:43:00;15.73;;;10.05;;
74650;SDS011;63169;46.042;14.592;2023-03-11T03:45:26;17.45;;;9.95;;
74650;SDS011;63169;46.042;14.592;2023-03-11T03:47:51;17.00;;;10.13;;
74650;SDS011;63169;46.042;14.592;2023-03-11T03:50:17;15.95;;;9.55;;
74650;SDS011;63169;46.042;14.592;2023-03-11T03:52:42;12.15;;;8.30;;
74650;SDS011;63169;46.042;14.592;2023-03-11T03:55:08;14.55;;;8.88;;
74650;SDS011;63169;46.042;14.592;2023-03-11T03:57:33;14.95;;;8.98;;
74650;SDS011;63169;46.042;14.592;2023-03-11T03:59:58;15.13;;;8.63;;
74650;SDS011;63169;46.042;14.592;2023-03-11T04:02:24;17.92;;;10.10;;
74650;SDS011;63169;46.042;14.592;2023-03-11T04:04:49;14.50;;;9.13;;
74650;SDS011;63169;46.042;14.592;2023-03-11T04:07:15;15.30;;;9.23;;
74650;SDS011;63169;46.042;14.592;2023-03-11T04:09:41;15.70;;;9.15;;
74650;SDS011;63169;46.042;14.592;2023-03-11T04:12:07;13.80;;;9.10;;
74650;SDS011;63169;46.042;14.592;2023-03-11T04:14:37;11.15;;;7.10;;
74650;SDS011;63169;46.042;14.592;2023-03-11T04:17:02;11.57;;;7.38;;
74650;SDS011;63169;46.042;14.592;2023-03-11T04:19:28;10.80;;;5.40;;
74650;SDS011;63169;46.042;14.592;2023-03-11T04:21:53;11.70;;;7.75;;
74650;SDS011;63169;46.042;14.592;2023-03-11T04:24:18;10.35;;;6.75;;
74650;SDS011;63169;46.042;14.592;2023-03-11T04:26:44;10.25;;;6.20;;
74650;SDS011;63169;46.042;14.592;2023-03-11T04:29:09;11.73;;;6.88;;
74650;SDS011;63169;46.042;14.592;2023-03-11T04:31:35;10.38;;;6.10;;
74650;SDS011;63169;46.042;14.592;2023-03-11T04:34:00;10.50;;;6.25;;
74650;SDS011;63169;46.042;14.592;2023-03-11T04:36:26;11.95;;;6.43;;
74650;SDS011;63169;46.042;14.592;2023-03-11T04:38:52;13.85;;;7.50;;
74650;SDS011;63169;46.042;14.592;2023-03-11T04:41:17;14.30;;;7.07;;
74650;SDS011;63169;46.042;14.592;2023-03-11T04:43:43;12.15;;;6.93;;
74650;SDS011;63169;46.042;14.592;2023-03-11T04:46:08;14.20;;;7.75;;
74650;SDS011;63169;46.042;14.592;2023-03-11T04:48:34;15.88;;;8.02;;
74650;SDS011;63169;46.042;14.592;2023-03-11T04:50:59;13.05;;;7.70;;
74650;SDS011;63169;46.042;14.592;2023-03-11T04:53:24;11.50;;;6.38;;
74650;SDS011;63169;46.042;14.592;2023-03-11T04:55:50;11.88;;;6.85;;
74650;SDS011;63169;46.042;14.592;2023-03-11T04:58:16;13.27;;;7.43;;
74650;SDS011;63169;46.042;14.592;2023-03-11T05:00:41;12.70;;;7.45;;
74650;SDS011;63169;46.042;14.592;2023-03-11T05:03:07;11.20;;;6.25;;
74650;SDS011;63169;46.042;14.592;2023-03-11T05:05:32;10.95;;;7.28;;
74650;SDS011;63169;46.042;14.592;2023-03-11T05:07:58;7.70;;;5.38;;
74650;SDS011;63169;46.042;14.592;2023-03-11T05:10:23;9.15;;;5.53;;
74650;SDS011;63169;46.042;14.592;2023-03-11T05:12:49;9.07;;;6.22;;
74650;SDS011;63169;46.042;14.592;2023-03-11T05:15:15;8.30;;;4.65;;
74650;SDS011;63169;46.042;14.592;2023-03-11T05:17:40;7.38;;;4.55;;
74650;SDS011;63169;46.042;14.592;2023-03-11T05:20:07;9.25;;;4.55;;
74650;SDS011;63169;46.042;14.592;2023-03-11T05:22:33;7.13;;;4.38;;
74650;SDS011;63169;46.042;14.592;2023-03-11T05:24:58;9.93;;;5.53;;
74650;SDS011;63169;46.042;14.592;2023-03-11T05:27:24;14.02;;;6.00;;
74650;SDS011;63169;46.042;14.592;2023-03-11T05:29:49;9.50;;;5.68;;
74650;SDS011;63169;46.042;14.592;2023-03-11T05:32:15;9.13;;;6.05;;
74650;SDS011;63169;46.042;14.592;2023-03-11T05:34:40;10.02;;;6.97;;
74650;SDS011;63169;46.042;14.592;2023-03-11T05:37:06;9.90;;;6.57;;
74650;SDS011;63169;46.042;14.592;2023-03-11T05:39:32;15.70;;;8.05;;
74650;SDS011;63169;46.042;14.592;2023-03-11T05:41:58;11.43;;;7.43;;
74650;SDS011;63169;46.042;14.592;2023-03-11T05:44:23;13.75;;;8.13;;
74650;SDS011;63169;46.042;14.592;2023-03-11T05:46:49;13.93;;;8.77;;
74650;SDS011;63169;46.042;14.592;2023-03-11T05:49:14;14.48;;;7.93;;
74650;SDS011;63169;46.042;14.592;2023-03-11T05:51:40;13.07;;;7.90;;
74650;SDS011;63169;46.042;14.592;2023-03-11T05:54:05;11.85;;;7.22;;
74650;SDS011;63169;46.042;14.592;2023-03-11T05:56:38;12.38;;;7.32;;
74650;SDS011;63169;46.042;14.592;2023-03-11T05:59:07;13.68;;;7.88;;
74650;SDS011;63169;46.042;14.592;2023-03-11T06:01:33;10.93;;;5.90;;
74650;SDS011;63169;46.042;14.592;2023-03-11T06:03:58;8.90;;;5.20;;
74650;SDS011;63169;46.042;14.592;2023-03-11T06:06:24;8.98;;;6.22;;
74650;SDS011;63169;46.042;14.592;2023-03-11T06:08:49;11.25;;;6.57;;
74650;SDS011;63169;46.042;14.592;2023-03-11T06:11:15;10.52;;;5.50;;
74650;SDS011;63169;46.042;14.592;2023-03-11T06:13:40;9.43;;;5.75;;
74650;SDS011;63169;46.042;14.592;2023-03-11T06:16:06;13.20;;;6.13;;
74650;SDS011;63169;46.042;14.592;2023-03-11T06:18:32;7.35;;;4.90;;
74650;SDS011;63169;46.042;14.592;2023-03-11T06:20:58;9.00;;;6.18;;
74650;SDS011;63169;46.042;14.592;2023-03-11T06:23:23;12.23;;;6.60;;
74650;SDS011;63169;46.042;14.592;2023-03-11T06:25:59;12.43;;;6.95;;
74650;SDS011;63169;46.042;14.592;2023-03-11T06:28:25;11.98;;;6.72;;
74650;SDS011;63169;46.042;14.592;2023-03-11T06:30:51;13.50;;;6.53;;
74650;SDS011;63169;46.042;14.592;2023-03-11T06:33:17;12.95;;;8.93;;
74650;SDS011;63169;46.042;14.592;2023-03-11T06:35:42;15.05;;;8.05;;
74650;SDS011;63169;46.042;14.592;2023-03-11T06:38:08;12.95;;;7.53;;
74650;SDS011;63169;46.042;14.592;2023-03-11T06:40:33;15.38;;;7.57;;
74650;SDS011;63169;46.042;14.592;2023-03-11T06:43:01;13.25;;;7.53;;
74650;SDS011;63169;46.042;14.592;2023-03-11T06:45:26;10.80;;;7.15;;
74650;SDS011;63169;46.042;14.592;2023-03-11T06:47:52;12.30;;;7.75;;
74650;SDS011;63169;46.042;14.592;2023-03-11T06:50:17;14.02;;;7.72;;
74650;SDS011;63169;46.042;14.592;2023-03-11T06:52:43;19.30;;;10.25;;
74650;SDS011;63169;46.042;14.592;2023-03-11T06:55:08;15.48;;;8.77;;
74650;SDS011;63169;46.042;14.592;2023-03-11T06:57:34;12.05;;;8.40;;
74650;SDS011;63169;46.042;14.592;2023-03-11T06:59:59;19.80;;;9.98;;
74650;SDS011;63169;46.042;14.592;2023-03-11T07:02:25;23.33;;;12.63;;
74650;SDS011;63169;46.042;14.592;2023-03-11T07:04:50;20.23;;;12.48;;
74650;SDS011;63169;46.042;14.592;2023-03-11T07:07:16;21.00;;;11.15;;
74650;SDS011;63169;46.042;14.592;2023-03-11T07:09:44;20.35;;;11.15;;
74650;SDS011;63169;46.042;14.592;2023-03-11T07:12:09;17.10;;;11.68;;
74650;SDS011;63169;46.042;14.592;2023-03-11T07:14:35;20.52;;;12.93;;
74650;SDS011;63169;46.042;14.592;2023-03-11T07:17:00;25.42;;;14.55;;
74650;SDS011;63169;46.042;14.592;2023-03-11T07:19:25;24.08;;;14.90;;
74650;SDS011;63169;46.042;14.592;2023-03-11T07:21:51;25.13;;;13.32;;
74650;SDS011;63169;46.042;14.592;2023-03-11T07:24:16;25.83;;;13.07;;
74650;SDS011;63169;46.042;14.592;2023-03-11T07:26:42;23.73;;;12.05;;
74650;SDS011;63169;46.042;14.592;2023-03-11T07:29:07;19.25;;;12.30;;
74650;SDS011;63169;46.042;14.592;2023-03-11T07:31:34;19.60;;;11.63;;
74650;SDS011;63169;46.042;14.592;2023-03-11T07:34:01;20.25;;;11.07;;
74650;SDS011;63169;46.042;14.592;2023-03-11T07:36:28;32.67;;;20.00;;
74650;SDS011;63169;46.042;14.592;2023-03-11T07:38:55;30.58;;;16.55;;
74650;SDS011;63169;46.042;14.592;2023-03-11T07:41:26;30.17;;;15.30;;
74650;SDS011;63169;46.042;14.592;2023-03-11T07:43:56;22.88;;;14.60;;
74650;SDS011;63169;46.042;14.592;2023-03-11T07:46:23;23.35;;;13.63;;
74650;SDS011;63169;46.042;14.592;2023-03-11T07:48:49;17.77;;;10.35;;
74650;SDS011;63169;46.042;14.592;2023-03-11T07:51:19;19.65;;;10.70;;
74650;SDS011;63169;46.042;14.592;2023-03-11T07:53:50;16.50;;;8.98;;
74650;SDS011;63169;46.042;14.592;2023-03-11T07:56:17;10.77;;;6.60;;
74650;SDS011;63169;46.042;14.592;2023-03-11T07:58:43;13.90;;;8.20;;
74650;SDS011;63169;46.042;14.592;2023-03-11T08:01:13;17.20;;;9.80;;
74650;SDS011;63169;46.042;14.592;2023-03-11T08:03:40;12.60;;;6.88;;
74650;SDS011;63169;46.042;14.592;2023-03-11T08:08:42;10.80;;;6.75;;
74650;SDS011;63169;46.042;14.592;2023-03-11T08:11:08;11.00;;;6.75;;
74650;SDS011;63169;46.042;14.592;2023-03-11T08:13:33;12.57;;;7.45;;
74650;SDS011;63169;46.042;14.592;2023-03-11T08:16:02;19.42;;;9.57;;
74650;SDS011;63169;46.042;14.592;2023-03-11T08:18:28;43.47;;;31.48;;
74650;SDS011;63169;46.042;14.592;2023-03-11T08:20:54;14.45;;;7.80;;
74650;SDS011;63169;46.042;14.592;2023-03-11T08:23:20;11.52;;;7.07;;
74650;SDS011;63169;46.042;14.592;2023-03-11T08:25:45;16.13;;;8.55;;
74650;SDS011;63169;46.042;14.592;2023-03-11T08:28:11;11.65;;;5.85;;
74650;SDS011;63169;46.042;14.592;2023-03-11T08:30:36;10.35;;;7.45;;
74650;SDS011;63169;46.042;14.592;2023-03-11T08:33:02;10.00;;;5.97;;
74650;SDS011;63169;46.042;14.592;2023-03-11T08:35:27;10.18;;;5.63;;
74650;SDS011;63169;46.042;14.592;2023-03-11T08:37:53;12.75;;;6.68;;
74650;SDS011;63169;46.042;14.592;2023-03-11T08:40:18;14.63;;;9.85;;
74650;SDS011;63169;46.042;14.592;2023-03-11T08:42:43;27.88;;;14.43;;
74650;SDS011;63169;46.042;14.592;2023-03-11T08:45:09;12.95;;;6.32;;
74650;SDS011;63169;46.042;14.592;2023-03-11T08:47:36;110.32;;;38.33;;
74650;SDS011;63169;46.042;14.592;2023-03-11T08:50:03;9.68;;;5.05;;
74650;SDS011;63169;46.042;14.592;2023-03-11T08:52:47;9.15;;;3.88;;
74650;SDS011;63169;46.042;14.592;2023-03-11T08:55:13;10.32;;;4.82;;
74650;SDS011;63169;46.042;14.592;2023-03-11T08:57:40;10.82;;;6.05;;
74650;SDS011;63169;46.042;14.592;2023-03-11T09:00:06;9.43;;;5.63;;
74650;SDS011;63169;46.042;14.592;2023-03-11T09:02:33;18.40;;;12.32;;
74650;SDS011;63169;46.042;14.592;2023-03-11T09:04:58;14.10;;;9.18;;
74650;SDS011;63169;46.042;14.592;2023-03-11T09:07:24;14.32;;;7.15;;
74650;SDS011;63169;46.042;14.592;2023-03-11T09:09:49;10.00;;;5.25;;
74650;SDS011;63169;46.042;14.592;2023-03-11T09:12:14;8.15;;;4.35;;
74650;SDS011;63169;46.042;14.592;2023-03-11T09:14:40;16.75;;;10.13;;
74650;SDS011;63169;46.042;14.592;2023-03-11T09:17:06;22.48;;;13.90;;
74650;SDS011;63169;46.042;14.592;2023-03-11T09:19:32;28.77;;;13.80;;
74650;SDS011;63169;46.042;14.592;2023-03-11T09:22:01;11.63;;;6.50;;
74650;SDS011;63169;46.042;14.592;2023-03-11T09:24:27;7.93;;;4.82;;
74650;SDS011;63169;46.042;14.592;2023-03-11T09:26:53;9.25;;;5.20;;
74650;SDS011;63169;46.042;14.592;2023-03-11T09:29:18;9.07;;;5.70;;
74650;SDS011;63169;46.042;14.592;2023-03-11T09:31:44;23.45;;;10.02;;
74650;SDS011;63169;46.042;14.592;2023-03-11T09:34:10;7.50;;;4.18;;
74650;SDS011;63169;46.042;14.592;2023-03-11T09:36:36;7.68;;;4.90;;
74650;SDS011;63169;46.042;14.592;2023-03-11T09:39:04;9.07;;;4.35;;
74650;SDS011;63169;46.042;14.592;2023-03-11T09:41:51;7.88;;;4.53;;
74650;SDS011;63169;46.042;14.592;2023-03-11T09:52:08;12.60;;;9.38;;
74650;SDS011;63169;46.042;14.592;2023-03-11T09:54:42;8.35;;;4.93;;
74650;SDS011;63169;46.042;14.592;2023-03-11T09:57:20;7.50;;;4.95;;
74650;SDS011;63169;46.042;14.592;2023-03-11T09:59:48;11.77;;;5.65;;
74650;SDS011;63169;46.042;14.592;2023-03-11T10:02:15;8.48;;;5.10;;
74650;SDS011;63169;46.042;14.592;2023-03-11T10:07:25;7.78;;;4.20;;
74650;SDS011;63169;46.042;14.592;2023-03-11T10:09:56;8.63;;;4.47;;
74650;SDS011;63169;46.042;14.592;2023-03-11T10:12:33;7.28;;;4.35;;
74650;SDS011;63169;46.042;14.592;2023-03-11T10:15:11;6.68;;;3.47;;
74650;SDS011;63169;46.042;14.592;2023-03-11T10:17:50;9.15;;;3.83;;
74650;SDS011;63169;46.042;14.592;2023-03-11T10:20:32;5.90;;;3.90;;
74650;SDS011;63169;46.042;14.592;2023-03-11T10:28:19;6.47;;;3.25;;
74650;SDS011;63169;46.042;14.592;2023-03-11T10:30:50;7.45;;;3.85;;
74650;SDS011;63169;46.042;14.592;2023-03-11T10:33:25;4.95;;;3.58;;
74650;SDS011;63169;46.042;14.592;2023-03-11T10:35:57;6.43;;;3.70;;
74650;SDS011;63169;46.042;14.592;2023-03-11T10:38:24;7.47;;;2.53;;
74650;SDS011;63169;46.042;14.592;2023-03-11T10:40:58;4.60;;;2.20;;
74650;SDS011;63169;46.042;14.592;2023-03-11T10:43:36;6.00;;;3.22;;
74650;SDS011;63169;46.042;14.592;2023-03-11T10:46:04;8.48;;;3.80;;
74650;SDS011;63169;46.042;14.592;2023-03-11T10:48:37;6.55;;;3.35;;
74650;SDS011;63169;46.042;14.592;2023-03-11T10:51:11;7.05;;;2.65;;
74650;SDS011;63169;46.042;14.592;2023-03-11T10:53:52;6.40;;;2.47;;
74650;SDS011;63169;46.042;14.592;2023-03-11T10:56:31;2.00;;;0.57;;
74650;SDS011;63169;46.042;14.592;2023-03-11T10:58:57;14.10;;;7.00;;
74650;SDS011;63169;46.042;14.592;2023-03-11T11:03:50;14.88;;;7.28;;
74650;SDS011;63169;46.042;14.592;2023-03-11T11:06:24;9.82;;;4.80;;
74650;SDS011;63169;46.042;14.592;2023-03-11T11:11:31;3.13;;;0.68;;
74650;SDS011;63169;46.042;14.592;2023-03-11T11:13:59;4.38;;;0.60;;
74650;SDS011;63169;46.042;14.592;2023-03-11T11:16:25;2.03;;;0.70;;
74650;SDS011;63169;46.042;14.592;2023-03-11T11:18:54;14.65;;;6.80;;
74650;SDS011;63169;46.042;14.592;2023-03-11T11:21:28;1.65;;;0.57;;
74650;SDS011;63169;46.042;14.592;2023-03-11T11:24:09;5.88;;;1.33;;
74650;SDS011;63169;46.042;14.592;2023-03-11T11:26:39;7.10;;;2.03;;
74650;SDS011;63169;46.042;14.592;2023-03-11T11:31:33;3.53;;;1.33;;
74650;SDS011;63169;46.042;14.592;2023-03-11T11:33:59;2.47;;;0.40;;
74650;SDS011;63169;46.042;14.592;2023-03-11T11:36:26;4.97;;;3.78;;
74650;SDS011;63169;46.042;14.592;2023-03-11T11:38:54;2.70;;;0.63;;
74650;SDS011;63169;46.042;14.592;2023-03-11T11:41:21;7.18;;;0.57;;
74650;SDS011;63169;46.042;14.592;2023-03-11T11:44:02;2.05;;;0.38;;
74650;SDS011;63169;46.042;14.592;2023-03-11T11:51:37;2.13;;;0.70;;
74650;SDS011;63169;46.042;14.592;2023-03-11T11:56:53;2.08;;;0.82;;
74650;SDS011;63169;46.042;14.592;2023-03-11T11:59:20;3.20;;;0.45;;
74650;SDS011;63169;46.042;14.592;2023-03-11T12:04:53;7.30;;;1.95;;
74650;SDS011;63169;46.042;14.592;2023-03-11T12:10:20;1.92;;;0.65;;
74650;SDS011;63169;46.042;14.592;2023-03-11T12:15:28;3.30;;;0.80;;
74650;SDS011;63169;46.042;14.592;2023-03-11T12:17:59;3.55;;;0.70;;
74650;SDS011;63169;46.042;14.592;2023-03-11T12:20:37;2.78;;;0.75;;
74650;SDS011;63169;46.042;14.592;2023-03-11T12:31:11;5.07;;;1.92;;
74650;SDS011;63169;46.042;14.592;2023-03-11T12:33:38;6.72;;;2.08;;
74650;SDS011;63169;46.042;14.592;2023-03-11T12:36:05;5.63;;;2.03;;
74650;SDS011;63169;46.042;14.592;2023-03-11T12:41:02;15.05;;;8.95;;
74650;SDS011;63169;46.042;14.592;2023-03-11T12:45:57;2.17;;;0.63;;
74650;SDS011;63169;46.042;14.592;2023-03-11T12:53:55;3.78;;;0.82;;
74650;SDS011;63169;46.042;14.592;2023-03-11T13:05:04;2.33;;;0.68;;
74650;SDS011;63169;46.042;14.592;2023-03-11T13:25:39;1.90;;;0.57;;
74650;SDS011;63169;46.042;14.592;2023-03-11T13:30:43;3.95;;;1.20;;
74650;SDS011;63169;46.042;14.592;2023-03-11T13:35:59;3.35;;;0.85;;
74650;SDS011;63169;46.042;14.592;2023-03-11T13:41:15;2.25;;;0.80;;
74650;SDS011;63169;46.042;14.592;2023-03-11T13:43:44;4.40;;;0.77;;
74650;SDS011;63169;46.042;14.592;2023-03-11T13:46:30;2.55;;;0.52;;
74650;SDS011;63169;46.042;14.592;2023-03-11T13:49:03;2.33;;;0.30;;
74650;SDS011;63169;46.042;14.592;2023-03-11T13:51:36;2.60;;;0.45;;
74650;SDS011;63169;46.042;14.592;2023-03-11T13:56:48;2.38;;;0.80;;
74650;SDS011;63169;46.042;14.592;2023-03-11T13:59:22;2.88;;;0.65;;
74650;SDS011;63169;46.042;14.592;2023-03-11T14:01:48;12.95;;;7.57;;
74650;SDS011;63169;46.042;14.592;2023-03-11T14:04:17;6.57;;;2.20;;
74650;SDS011;63169;46.042;14.592;2023-03-11T14:06:54;7.00;;;3.72;;
74650;SDS011;63169;46.042;14.592;2023-03-11T14:09:20;7.10;;;3.30;;
74650;SDS011;63169;46.042;14.592;2023-03-11T14:11:47;7.95;;;4.28;;
74650;SDS011;63169;46.042;14.592;2023-03-11T14:17:20;3.17;;;0.57;;
74650;SDS011;63169;46.042;14.592;2023-03-11T14:22:50;8.48;;;6.05;;
74650;SDS011;63169;46.042;14.592;2023-03-11T14:25:21;2.10;;;0.80;;
74650;SDS011;63169;46.042;14.592;2023-03-11T14:27:52;5.00;;;2.40;;
74650;SDS011;63169;46.042;14.592;2023-03-11T14:30:24;2.28;;;0.40;;
74650;SDS011;63169;46.042;14.592;2023-03-11T14:35:28;2.13;;;0.70;;
74650;SDS011;63169;46.042;14.592;2023-03-11T14:37:53;2.47;;;0.47;;
74650;SDS011;63169;46.042;14.592;2023-03-11T14:40:23;2.08;;;0.73;;
74650;SDS011;63169;46.042;14.592;2023-03-11T14:42:57;2.58;;;1.35;;
74650;SDS011;63169;46.042;14.592;2023-03-11T14:45:25;4.57;;;2.05;;
74650;SDS011;63169;46.042;14.592;2023-03-11T14:47:58;4.13;;;1.23;;
74650;SDS011;63169;46.042;14.592;2023-03-11T14:50:30;3.63;;;0.95;;
74650;SDS011;63169;46.042;14.592;2023-03-11T14:55:39;3.72;;;1.25;;
74650;SDS011;63169;46.042;14.592;2023-03-11T15:01:21;2.97;;;1.13;;
74650;SDS011;63169;46.042;14.592;2023-03-11T15:03:54;4.10;;;1.10;;
74650;SDS011;63169;46.042;14.592;2023-03-11T15:06:22;3.22;;;0.63;;
74650;SDS011;63169;46.042;14.592;2023-03-11T15:11:18;3.75;;;1.15;;
74650;SDS011;63169;46.042;14.592;2023-03-11T15:13:46;3.15;;;1.52;;
74650;SDS011;63169;46.042;14.592;2023-03-11T15:18:46;5.28;;;1.73;;
74650;SDS011;63169;46.042;14.592;2023-03-11T15:21:13;3.65;;;0.95;;
74650;SDS011;63169;46.042;14.592;2023-03-11T15:23:46;3.53;;;1.25;;
74650;SDS011;63169;46.042;14.592;2023-03-11T15:26:20;4.25;;;1.58;;
74650;SDS011;63169;46.042;14.592;2023-03-11T15:28:51;5.07;;;1.30;;
74650;SDS011;63169;46.042;14.592;2023-03-11T15:33:49;3.45;;;1.40;;
74650;SDS011;63169;46.042;14.592;2023-03-11T15:36:36;2.63;;;1.17;;
74650;SDS011;63169;46.042;14.592;2023-03-11T15:41:36;3.08;;;1.50;;
74650;SDS011;63169;46.042;14.592;2023-03-11T15:44:01;4.03;;;1.55;;
74650;SDS011;63169;46.042;14.592;2023-03-11T15:46:31;4.78;;;1.85;;
74650;SDS011;63169;46.042;14.592;2023-03-11T15:51:23;2.37;;;0.90;;
74650;SDS011;63169;46.042;14.592;2023-03-11T15:53:48;2.47;;;0.90;;
74650;SDS011;63169;46.042;14.592;2023-03-11T15:56:15;3.38;;;0.57;;
74650;SDS011;63169;46.042;14.592;2023-03-11T15:58:47;2.17;;;0.52;;
74650;SDS011;63169;46.042;14.592;2023-03-11T16:01:12;4.03;;;1.67;;
74650;SDS011;63169;46.042;14.592;2023-03-11T16:03:37;3.70;;;0.90;;
74650;SDS011;63169;46.042;14.592;2023-03-11T16:06:03;4.82;;;1.58;;
74650;SDS011;63169;46.042;14.592;2023-03-11T16:08:28;3.90;;;0.88;;
74650;SDS011;63169;46.042;14.592;2023-03-11T16:10:53;2.60;;;0.88;;
74650;SDS011;63169;46.042;14.592;2023-03-11T16:13:19;6.90;;;4.45;;
74650;SDS011;63169;46.042;14.592;2023-03-11T16:15:44;3.38;;;1.05;;
74650;SDS011;63169;46.042;14.592;2023-03-11T16:18:11;13.73;;;4.70;;
74650;SDS011;63169;46.042;14.592;2023-03-11T16:23:04;12.68;;;5.75;;
74650;SDS011;63169;46.042;14.592;2023-03-11T16:25:35;23.10;;;9.40;;
74650;SDS011;63169;46.042;14.592;2023-03-11T16:28:02;10.05;;;4.30;;
74650;SDS011;63169;46.042;14.592;2023-03-11T16:30:29;37.38;;;14.48;;
74650;SDS011;63169;46.042;14.592;2023-03-11T16:32:55;4.60;;;2.28;;
74650;SDS011;63169;46.042;14.592;2023-03-11T16:35:21;35.88;;;15.60;;
74650;SDS011;63169;46.042;14.592;2023-03-11T16:37:47;3.78;;;1.20;;